Time;durP1;ratioP1;P1;durP2;ratioP2;P2;SDS_P1;SDS_P2;PMS_P1;PMS_P2;Temp;Humidity;BMP_temperature;BMP_pressure;BME280_temperature;BME280_humidity;BME280_pressure;Samples;Min_cycle;Max_cycle;Signal;HPM_P1;HPM_P2
2022/03/25 00:01:33;;;;;;;;;;;;;;;;;;6157553;23;19931;-88
2022/03/25 00:04:00;;;;;;;;;;;;;;;;;;6183346;23;19919;-88
2022/03/25 00:06:28;;;;;;;;;;;;;;;;;;6180993;23;19953;-87
2022/03/25 00:08:55;;;;;;;;;;;;;;;;;;6179056;23;20245;-88
2022/03/25 00:11:22;;;;;;;;;;;;;;;;;;6178481;23;19920;-89
2022/03/25 00:13:49;;;;;;;;;;;;;;;;;;6178020;23;19974;-88
2022/03/25 00:16:16;;;;;;;;;;;;;;;;;;6177310;23;20296;-88
2022/03/25 00:18:43;;;;;;;;;;;;;;;;;;6178215;23;20364;-88
2022/03/25 00:21:11;;;;;;;;;;;;;;;;;;6177056;23;19916;-88
2022/03/25 00:23:39;;;;;;;;;;;;;;;;;;6205137;23;19991;-88
2022/03/25 00:26:05;;;;;;;;;;;;;;;;;;6178287;23;19919;-88
2022/03/25 00:28:31;;;;;;;;;;;;;;;;;;6178091;23;19930;-88
2022/03/25 00:30:57;;;;;;;;;;;;;;;;;;6177177;23;19923;-88
2022/03/25 00:33:49;;;;;;;;;;;;;;;;;;6199891;23;19935;-88
2022/03/25 00:36:28;;;;;;;;;;;;;;;;;;6178244;23;19955;-88
2022/03/25 00:38:55;;;;;;;;;;;;;;;;;;6177712;23;19951;-88
2022/03/25 00:41:23;;;;;;;;;;;;;;;;;;6176363;23;20359;-88
2022/03/25 00:43:50;;;;;;;;;;;;;;;;;;6178596;23;19920;-88
2022/03/25 00:46:16;;;;;;;;;;;;;;;;;;6177899;23;19973;-88
2022/03/25 00:48:42;;;;;;;;;;;;;;;;;;6177715;23;20006;-88
2022/03/25 00:51:10;;;;;;;;;;;;;;;;;;6177743;23;19919;-88
2022/03/25 00:53:42;;;;;;;;;;;;;;;;;;6178338;23;19923;-88
2022/03/25 00:56:08;;;;;;;;;;;;;;;;;;6177511;23;19920;-88
2022/03/25 00:58:37;;;;;;;;;;;;;;;;;;6179234;23;19920;-87
2022/03/25 01:01:03;;;;;;;;;;;;;;;;;;6176100;23;19995;-88
2022/03/25 01:03:45;;;;;;;;;;;;;;;;;;6139327;23;19960;-87
2022/03/25 01:06:29;;;;;;;;;;;;;;;;;;6140284;23;19920;-88
2022/03/25 01:09:00;;;;;;;;;;;;;;;;;;6140112;23;20261;-88
2022/03/25 01:11:47;;;;;;;;;;;;;;;;;;6145982;23;19920;-88
2022/03/25 01:14:15;;;;;;;;;;;;;;;;;;6146083;23;20499;-88
2022/03/25 01:16:42;;;;;;;;;;;;;;;;;;6145485;23;20325;-88
2022/03/25 01:19:10;;;;;;;;;;;;;;;;;;6145578;23;20404;-88
2022/03/25 01:21:39;;;;;;;;;;;;;;;;;;6170627;23;20296;-88
2022/03/25 01:24:07;;;;;;;;;;;;;;;;;;6170271;23;20387;-88
2022/03/25 01:26:34;;;;;;;;;;;;;;;;;;6146121;23;20274;-88
2022/03/25 01:29:01;;;;;;;;;;;;;;;;;;6148651;23;19995;-88
2022/03/25 01:31:28;;;;;;;;;;;;;;;;;;6149193;23;19920;-88
2022/03/25 01:33:56;;;;;;;;;;;;;;;;;;6153142;23;20283;-88
2022/03/25 01:36:24;;;;;;;;;;;;;;;;;;6177988;23;19919;-88
2022/03/25 01:38:50;;;;;;;;;;;;;;;;;;6154457;23;19920;-88
2022/03/25 01:41:23;;;;;;;;;;;;;;;;;;6177344;23;19923;-88
2022/03/25 01:43:50;;;;;;;;;;;;;;;;;;6153174;23;19919;-87
2022/03/25 01:46:31;;;;;;;;;;;;;;;;;;6121461;23;20255;-88
2022/03/25 01:48:58;;;;;;;;;;;;;;;;;;6119809;23;19921;-89
2022/03/25 01:51:26;;;;;;;;;;;;;;;;;;6119029;23;19925;-88
2022/03/25 01:53:52;;;;;;;;;;;;;;;;;;6119292;23;19916;-88
2022/03/25 01:56:34;;;;;;;;;;;;;;;;;;6093237;23;20431;-88
2022/03/25 01:59:02;;;;;;;;;;;;;;;;;;6085692;23;20282;-88
2022/03/25 02:01:29;;;;;;;;;;;;;;;;;;6090211;23;20340;-88
2022/03/25 02:04:10;;;;;;;;;;;;;;;;;;5967120;24;20311;-88
2022/03/25 02:06:42;;;;;;;;;;;;;;;;;;5967522;23;20362;-88
2022/03/25 02:09:10;;;;;;;;;;;;;;;;;;5944289;24;19926;-88
2022/03/25 02:11:37;;;;;;;;;;;;;;;;;;5944524;24;20368;-87
2022/03/25 02:14:18;;;;;;;;;;;;;;;;;;5996503;23;19929;-88
2022/03/25 02:16:45;;;;;;;;;;;;;;;;;;5977430;23;19925;-87
2022/03/25 02:19:11;;;;;;;;;;;;;;;;;;6001697;23;19918;-87
2022/03/25 02:21:45;;;;;;;;;;;;;;;;;;6001168;23;19962;-87
2022/03/25 02:24:13;;;;;;;;;;;;;;;;;;6025503;23;19922;-87
2022/03/25 02:26:54;;;;;;;;;;;;;;;;;;5998132;23;19932;-87
2022/03/25 02:29:21;;;;;;;;;;;;;;;;;;5973683;23;20379;-87
2022/03/25 02:31:47;;;;;;;;;;;;;;;;;;5974827;23;19957;-87
2022/03/25 02:34:28;;;;;;;;;;;;;;;;;;5999944;23;19924;-87
2022/03/25 02:36:56;;;;;;;;;;;;;;;;;;6031451;23;19928;-87
2022/03/25 02:39:23;;;;;;;;;;;;;;;;;;6054082;23;20362;-87
2022/03/25 02:41:51;;;;;;;;;;;;;;;;;;6055002;23;19980;-87
2022/03/25 02:44:18;;;;;;;;;;;;;;;;;;6053444;23;20283;-86
2022/03/25 02:46:45;;;;;;;;;;;;;;;;;;6030932;23;19926;-87
2022/03/25 02:49:13;;;;;;;;;;;;;;;;;;6052608;23;19933;-87
2022/03/25 02:51:40;;;;;;;;;;;;;;;;;;6029474;23;19932;-87
2022/03/25 02:54:06;;;;;;;;;;;;;;;;;;6031275;23;19936;-88
2022/03/25 02:56:34;;;;;;;;;;;;;;;;;;6054935;23;20505;-87
2022/03/25 02:59:01;;;;;;;;;;;;;;;;;;6057258;23;19921;-87
2022/03/25 03:01:28;;;;;;;;;;;;;;;;;;6035265;23;19948;-87
2022/03/25 03:03:55;;;;;;;;;;;;;;;;;;6059207;23;20533;-87
2022/03/25 03:06:22;;;;;;;;;;;;;;;;;;6107896;23;20365;-87
2022/03/25 03:08:48;;;;;;;;;;;;;;;;;;6141389;23;19925;-87
2022/03/25 03:11:16;;;;;;;;;;;;;;;;;;6142266;23;20011;-87
2022/03/25 03:13:44;;;;;;;;;;;;;;;;;;6143004;23;19923;-87
2022/03/25 03:16:31;;;;;;;;;;;;;;;;;;6116228;23;19921;-88
2022/03/25 03:19:19;;;;;;;;;;;;;;;;;;6087690;23;20247;-88
2022/03/25 03:21:46;;;;;;;;;;;;;;;;;;6088774;23;19925;-87
2022/03/25 03:24:13;;;;;;;;;;;;;;;;;;6087513;23;20089;-87
2022/03/25 03:26:50;;;;;;;;;;;;;;;;;;6114985;23;20372;-88
2022/03/25 03:29:21;;;;;;;;;;;;;;;;;;6112949;23;19925;-88
2022/03/25 03:31:48;;;;;;;;;;;;;;;;;;6089314;23;19952;-87
2022/03/25 03:34:15;;;;;;;;;;;;;;;;;;6088268;23;20289;-87
2022/03/25 03:36:45;;;;;;;;;;;;;;;;;;6112282;23;19924;-88
2022/03/25 03:39:21;;;;;;;;;;;;;;;;;;6089251;23;19921;-87
2022/03/25 03:41:48;;;;;;;;;;;;;;;;;;6088501;23;19924;-87
2022/03/25 03:44:15;;;;;;;;;;;;;;;;;;6088466;23;19921;-87
2022/03/25 03:46:41;;;;;;;;;;;;;;;;;;6087575;23;20009;-87
2022/03/25 03:49:10;;;;;;;;;;;;;;;;;;6112611;23;19932;-87
2022/03/25 03:51:41;;;;;;;;;;;;;;;;;;6112598;23;19933;-88
2022/03/25 03:54:08;;;;;;;;;;;;;;;;;;6086745;23;19921;-88
2022/03/25 03:56:35;;;;;;;;;;;;;;;;;;6087601;23;19968;-87
2022/03/25 03:59:03;;;;;;;;;;;;;;;;;;6088902;23;19948;-87
2022/03/25 04:01:30;;;;;;;;;;;;;;;;;;6089001;23;19928;-88
2022/03/25 04:03:57;;;;;;;;;;;;;;;;;;6093644;23;19964;-88
2022/03/25 04:06:25;;;;;;;;;;;;;;;;;;6116786;23;19921;-88
2022/03/25 04:08:53;;;;;;;;;;;;;;;;;;6122352;23;20629;-88
2022/03/25 04:11:23;;;;;;;;;;;;;;;;;;6174260;23;19920;-87
2022/03/25 04:13:49;;;;;;;;;;;;;;;;;;6172603;23;19970;-87
2022/03/25 04:16:16;;;;;;;;;;;;;;;;;;6172881;23;19991;-87
2022/03/25 04:18:42;;;;;;;;;;;;;;;;;;6172265;23;19927;-87
2022/03/25 04:21:10;;;;;;;;;;;;;;;;;;6173573;23;19921;-88
2022/03/25 04:23:37;;;;;;;;;;;;;;;;;;6173379;23;19920;-87
2022/03/25 04:26:05;;;;;;;;;;;;;;;;;;6173540;23;20030;-88
2022/03/25 04:28:31;;;;;;;;;;;;;;;;;;6172605;23;19924;-87
2022/03/25 04:30:58;;;;;;;;;;;;;;;;;;6172339;23;19942;-87
2022/03/25 04:33:25;;;;;;;;;;;;;;;;;;6172420;23;19999;-87
2022/03/25 04:35:51;;;;;;;;;;;;;;;;;;6171764;23;19919;-88
2022/03/25 04:38:18;;;;;;;;;;;;;;;;;;6172225;23;19926;-87
2022/03/25 04:40:46;;;;;;;;;;;;;;;;;;6172564;23;19924;-87
2022/03/25 04:43:13;;;;;;;;;;;;;;;;;;6172255;23;19920;-87
2022/03/25 04:45:40;;;;;;;;;;;;;;;;;;6171350;23;19923;-87
2022/03/25 04:48:10;;;;;;;;;;;;;;;;;;6173420;23;20326;-88
2022/03/25 04:50:47;;;;;;;;;;;;;;;;;;6170774;23;19920;-88
2022/03/25 04:53:14;;;;;;;;;;;;;;;;;;6171526;23;19920;-87
2022/03/25 04:55:41;;;;;;;;;;;;;;;;;;6172532;23;20011;-88
2022/03/25 04:58:11;;;;;;;;;;;;;;;;;;6196541;23;19982;-88
2022/03/25 05:00:48;;;;;;;;;;;;;;;;;;6174678;23;19922;-87
2022/03/25 05:03:33;;;;;;;;;;;;;;;;;;6199819;23;19924;-88
2022/03/25 05:06:14;;;;;;;;;;;;;;;;;;6140281;23;19960;-88
2022/03/25 05:08:43;;;;;;;;;;;;;;;;;;6138573;23;19925;-87
2022/03/25 05:11:25;;;;;;;;;;;;;;;;;;6138998;23;19921;-87
2022/03/25 05:13:52;;;;;;;;;;;;;;;;;;6115187;23;20269;-87
2022/03/25 05:16:19;;;;;;;;;;;;;;;;;;6114200;23;19924;-87
2022/03/25 05:18:48;;;;;;;;;;;;;;;;;;6139263;23;19995;-87
2022/03/25 05:21:15;;;;;;;;;;;;;;;;;;6115658;23;19960;-88
2022/03/25 05:23:41;;;;;;;;;;;;;;;;;;6116919;23;20353;-87
2022/03/25 05:26:07;;;;;;;;;;;;;;;;;;6116523;23;19917;-88
2022/03/25 05:28:35;;;;;;;;;;;;;;;;;;6143440;23;19999;-87
2022/03/25 05:31:02;;;;;;;;;;;;;;;;;;6118697;23;19920;-87
2022/03/25 05:33:30;;;;;;;;;;;;;;;;;;6118523;23;20668;-88
2022/03/25 05:35:57;;;;;;;;;;;;;;;;;;6119157;23;19916;-88
2022/03/25 05:38:24;;;;;;;;;;;;;;;;;;6177761;23;19916;-87
2022/03/25 05:40:50;;;;;;;;;;;;;;;;;;6179823;23;19924;-87
2022/03/25 05:43:36;;;;;;;;;;;;;;;;;;6204888;23;19919;-87
2022/03/25 05:46:04;;;;;;;;;;;;;;;;;;6179753;23;19968;-88
2022/03/25 05:48:31;;;;;;;;;;;;;;;;;;6180066;23;19958;-87
2022/03/25 05:50:58;;;;;;;;;;;;;;;;;;6178512;23;19940;-87
2022/03/25 05:53:26;;;;;;;;;;;;;;;;;;6179153;23;19928;-87
2022/03/25 05:55:53;;;;;;;;;;;;;;;;;;6178182;23;19943;-87
2022/03/25 05:58:19;;;;;;;;;;;;;;;;;;6180087;23;20018;-88
2022/03/25 06:00:45;;;;;;;;;;;;;;;;;;6178717;23;19920;-87
2022/03/25 06:03:18;;;;;;;;;;;;;;;;;;6173472;23;19925;-87
2022/03/25 06:05:44;;;;;;;;;;;;;;;;;;6197421;23;19925;-87
2022/03/25 06:08:11;;;;;;;;;;;;;;;;;;6172849;23;19931;-87
2022/03/25 06:10:39;;;;;;;;;;;;;;;;;;6172465;23;20629;-87
2022/03/25 06:13:06;;;;;;;;;;;;;;;;;;6172802;23;19920;-87
2022/03/25 06:15:33;;;;;;;;;;;;;;;;;;6171538;23;20336;-87
2022/03/25 06:18:00;;;;;;;;;;;;;;;;;;6173686;23;19920;-87
2022/03/25 06:20:31;;;;;;;;;;;;;;;;;;6172948;23;19971;-87
2022/03/25 06:22:58;;;;;;;;;;;;;;;;;;6174563;23;20336;-88
2022/03/25 06:25:25;;;;;;;;;;;;;;;;;;6172509;23;20100;-88
2022/03/25 06:27:52;;;;;;;;;;;;;;;;;;6172339;23;20002;-87
2022/03/25 06:30:19;;;;;;;;;;;;;;;;;;6173085;23;20278;-88
2022/03/25 06:32:45;;;;;;;;;;;;;;;;;;6172778;23;20558;-88
2022/03/25 06:35:12;;;;;;;;;;;;;;;;;;6173594;23;19922;-88
2022/03/25 06:37:59;;;;;;;;;;;;;;;;;;6175187;23;20409;-88
2022/03/25 06:40:26;;;;;;;;;;;;;;;;;;6197235;23;19924;-87
2022/03/25 06:42:57;;;;;;;;;;;;;;;;;;6174694;23;19916;-87
2022/03/25 06:45:24;;;;;;;;;;;;;;;;;;6175459;23;20003;-87
2022/03/25 06:47:54;;;;;;;;;;;;;;;;;;6175786;23;20647;-87
2022/03/25 06:50:22;;;;;;;;;;;;;;;;;;6166722;23;19920;-88
2022/03/25 06:52:53;;;;;;;;;;;;;;;;;;6175763;23;20011;-88
2022/03/25 06:55:23;;;;;;;;;;;;;;;;;;6173310;23;19916;-89
2022/03/25 06:57:50;;;;;;;;;;;;;;;;;;6171763;23;19921;-88
2022/03/25 07:00:21;;;;;;;;;;;;;;;;;;6171093;23;20010;-88
2022/03/25 07:02:49;;;;;;;;;;;;;;;;;;6170426;23;19995;-87
2022/03/25 07:05:15;;;;;;;;;;;;;;;;;;6171050;23;19924;-87
2022/03/25 07:07:42;;;;;;;;;;;;;;;;;;6170079;23;20047;-87
2022/03/25 07:10:09;;;;;;;;;;;;;;;;;;6170041;23;19942;-87
2022/03/25 07:12:39;;;;;;;;;;;;;;;;;;6173051;23;19998;-87
2022/03/25 07:15:07;;;;;;;;;;;;;;;;;;6169142;23;19926;-88
2022/03/25 07:17:34;;;;;;;;;;;;;;;;;;6172997;23;19920;-87
2022/03/25 07:20:01;;;;;;;;;;;;;;;;;;6173169;23;19926;-87
2022/03/25 07:22:29;;;;;;;;;;;;;;;;;;6173417;23;19924;-87
2022/03/25 07:24:56;;;;;;;;;;;;;;;;;;6173583;23;20014;-87
2022/03/25 07:27:22;;;;;;;;;;;;;;;;;;6175049;23;19935;-87
2022/03/25 07:29:49;;;;;;;;;;;;;;;;;;6172719;23;19995;-88
2022/03/25 07:32:15;;;;;;;;;;;;;;;;;;6173730;23;19924;-86
2022/03/25 07:34:42;;;;;;;;;;;;;;;;;;6172365;23;19982;-88
2022/03/25 07:37:09;;;;;;;;;;;;;;;;;;6172319;23;19920;-88
2022/03/25 07:39:36;;;;;;;;;;;;;;;;;;6171054;23;19927;-89
2022/03/25 07:42:03;;;;;;;;;;;;;;;;;;6175612;23;20308;-88
2022/03/25 07:44:31;;;;;;;;;;;;;;;;;;6171527;23;19920;-88
2022/03/25 07:46:59;;;;;;;;;;;;;;;;;;6176007;23;19916;-88
2022/03/25 07:49:25;;;;;;;;;;;;;;;;;;6171030;23;19928;-88
2022/03/25 07:51:53;;;;;;;;;;;;;;;;;;6194329;23;19916;-89
2022/03/25 07:54:26;;;;;;;;;;;;;;;;;;6170391;23;19970;-88
2022/03/25 07:56:55;;;;;;;;;;;;;;;;;;6170310;23;19920;-88
2022/03/25 07:59:23;;;;;;;;;;;;;;;;;;6170807;23;20014;-89
2022/03/25 08:01:52;;;;;;;;;;;;;;;;;;6170414;23;20203;-89
2022/03/25 08:04:27;;;;;;;;;;;;;;;;;;6173221;23;19916;-89
2022/03/25 08:06:54;;;;;;;;;;;;;;;;;;6170084;23;19927;-89
2022/03/25 08:09:22;;;;;;;;;;;;;;;;;;6169210;23;19931;-89
2022/03/25 08:12:05;;;;;;;;;;;;;;;;;;6190915;23;19927;-89
2022/03/25 08:14:32;;;;;;;;;;;;;;;;;;6168218;23;19928;-88
2022/03/25 08:16:59;;;;;;;;;;;;;;;;;;6170430;23;19916;-89
2022/03/25 08:19:27;;;;;;;;;;;;;;;;;;6171060;23;19939;-88
2022/03/25 08:22:13;;;;;;;;;;;;;;;;;;6174068;23;19920;-88
2022/03/25 08:30:15;;;;;;;;;;;;;;;;;;6175267;23;19974;-88
2022/03/25 08:32:42;;;;;;;;;;;;;;;;;;6175546;23;19966;-89
2022/03/25 08:35:10;;;;;;;;;;;;;;;;;;6177104;23;20304;-88
2022/03/25 08:37:40;;;;;;;;;;;;;;;;;;6170914;23;20343;-88
2022/03/25 08:40:08;;;;;;;;;;;;;;;;;;6170099;23;19920;-89
2022/03/25 08:42:37;;;;;;;;;;;;;;;;;;6171768;23;19946;-88
2022/03/25 08:45:04;;;;;;;;;;;;;;;;;;6168178;23;19936;-89
2022/03/25 08:47:31;;;;;;;;;;;;;;;;;;6169490;23;19920;-90
2022/03/25 08:50:17;;;;;;;;;;;;;;;;;;6191542;23;19923;-90
2022/03/25 08:52:43;;;;;;;;;;;;;;;;;;6171592;23;20245;-89
2022/03/25 08:55:13;;;;;;;;;;;;;;;;;;6173000;23;19920;-89
2022/03/25 08:57:41;;;;;;;;;;;;;;;;;;6171159;23;19927;-88
2022/03/25 09:00:07;;;;;;;;;;;;;;;;;;6175326;23;19992;-89
2022/03/25 09:02:37;;;;;;;;;;;;;;;;;;6185560;23;20431;-88
2022/03/25 09:05:04;;;;;;;;;;;;;;;;;;6177044;23;20379;-88
2022/03/25 09:07:33;;;;;;;;;;;;;;;;;;6176319;23;19920;-88
2022/03/25 09:10:05;;;;;;;;;;;;;;;;;;6203536;23;19926;-88
2022/03/25 09:12:37;;;;;;;;;;;;;;;;;;6175044;23;20395;-88
2022/03/25 09:15:05;;;;;;;;;;;;;;;;;;6176753;23;19943;-89
2022/03/25 09:17:31;;;;;;;;;;;;;;;;;;6177175;23;19916;-89
2022/03/25 09:19:58;;;;;;;;;;;;;;;;;;6176713;23;19926;-89
2022/03/25 09:22:43;;;;;;;;;;;;;;;;;;6191688;23;20040;-89
2022/03/25 09:25:09;;;;;;;;;;;;;;;;;;6194539;23;19951;-89
2022/03/25 09:27:37;;;;;;;;;;;;;;;;;;6196040;23;20655;-89
2022/03/25 09:30:04;;;;;;;;;;;;;;;;;;6146624;23;19923;-89
2022/03/25 09:32:30;;;;;;;;;;;;;;;;;;6122775;23;19983;-89
2022/03/25 09:35:09;;;;;;;;;;;;;;;;;;6146821;23;20259;-89
2022/03/25 09:37:36;;;;;;;;;;;;;;;;;;6148983;23;20434;-88
2022/03/25 09:40:03;;;;;;;;;;;;;;;;;;6127865;23;19924;-90
2022/03/25 09:42:50;;;;;;;;;;;;;;;;;;6155126;23;19924;-89
2022/03/25 09:45:21;;;;;;;;;;;;;;;;;;6173208;23;20396;-89
2022/03/25 09:47:51;;;;;;;;;;;;;;;;;;6121666;23;20001;-89
2022/03/25 09:50:21;;;;;;;;;;;;;;;;;;6121810;23;19920;-89
2022/03/25 09:52:48;;;;;;;;;;;;;;;;;;6148702;23;19920;-89
2022/03/25 09:55:14;;;;;;;;;;;;;;;;;;6174420;23;19924;-90
2022/03/25 09:57:41;;;;;;;;;;;;;;;;;;6173079;23;19919;-89
2022/03/25 10:00:08;;;;;;;;;;;;;;;;;;6173812;23;19920;-89
2022/03/25 10:02:36;;;;;;;;;;;;;;;;;;6170653;23;19943;-89
2022/03/25 10:05:02;;;;;;;;;;;;;;;;;;6170016;23;19920;-89
2022/03/25 10:07:33;;;;;;;;;;;;;;;;;;6169292;23;19969;-90
2022/03/25 10:10:01;;;;;;;;;;;;;;;;;;6169779;23;20254;-89
2022/03/25 10:12:29;;;;;;;;;;;;;;;;;;6173807;23;19927;-89
2022/03/25 10:14:56;;;;;;;;;;;;;;;;;;6176800;23;19920;-89
2022/03/25 10:17:22;;;;;;;;;;;;;;;;;;6176458;23;20230;-89
2022/03/25 10:19:52;;;;;;;;;;;;;;;;;;6178416;23;19973;-89
2022/03/25 10:22:35;;;;;;;;;;;;;;;;;;6138352;23;20012;-89
2022/03/25 10:25:01;;;;;;;;;;;;;;;;;;6091912;23;19928;-89
2022/03/25 10:27:29;;;;;;;;;;;;;;;;;;6092261;23;19920;-89
2022/03/25 10:30:16;;;;;;;;;;;;;;;;;;6063030;23;19933;-89
2022/03/25 10:32:58;;;;;;;;;;;;;;;;;;6088490;23;19925;-89
2022/03/25 10:35:25;;;;;;;;;;;;;;;;;;6063811;23;20028;-90
2022/03/25 10:37:51;;;;;;;;;;;;;;;;;;6040969;23;20357;-89
2022/03/25 10:40:33;;;;;;;;;;;;;;;;;;6107749;23;20019;-89
2022/03/25 10:42:59;;;;;;;;;;;;;;;;;;6121354;23;20027;-89
2022/03/25 10:45:42;;;;;;;;;;;;;;;;;;6146246;23;20346;-88
2022/03/25 10:48:08;;;;;;;;;;;;;;;;;;6119922;23;19925;-89
2022/03/25 10:50:35;;;;;;;;;;;;;;;;;;6121392;23;19917;-89
2022/03/25 10:53:02;;;;;;;;;;;;;;;;;;6121432;23;19927;-89
2022/03/25 10:55:29;;;;;;;;;;;;;;;;;;6120827;23;20021;-89
2022/03/25 10:57:56;;;;;;;;;;;;;;;;;;6146464;23;19963;-88
2022/03/25 11:00:24;;;;;;;;;;;;;;;;;;6122436;23;19979;-89
2022/03/25 11:02:51;;;;;;;;;;;;;;;;;;6121785;23;19927;-89
2022/03/25 11:05:18;;;;;;;;;;;;;;;;;;6120850;23;19979;-88
2022/03/25 11:07:46;;;;;;;;;;;;;;;;;;6122061;23;19935;-89
2022/03/25 11:10:13;;;;;;;;;;;;;;;;;;6124012;23;19923;-89
2022/03/25 11:12:40;;;;;;;;;;;;;;;;;;6128591;23;19920;-89
2022/03/25 11:15:07;;;;;;;;;;;;;;;;;;6153441;23;20664;-89
2022/03/25 11:17:36;;;;;;;;;;;;;;;;;;6153629;23;19948;-89
2022/03/25 11:20:03;;;;;;;;;;;;;;;;;;6154089;23;19939;-89
2022/03/25 11:22:30;;;;;;;;;;;;;;;;;;6179865;23;19920;-88
2022/03/25 11:24:57;;;;;;;;;;;;;;;;;;6178842;23;19995;-89
2022/03/25 11:27:25;;;;;;;;;;;;;;;;;;6176499;23;19920;-89
2022/03/25 11:30:09;;;;;;;;;;;;;;;;;;6179743;23;20245;-89
2022/03/25 11:32:58;;;;;;;;;;;;;;;;;;6180155;23;19943;-89
2022/03/25 11:35:30;;;;;;;;;;;;;;;;;;6178238;23;20376;-89
2022/03/25 11:37:57;;;;;;;;;;;;;;;;;;6178997;23;20284;-88
2022/03/25 11:40:28;;;;;;;;;;;;;;;;;;6177950;23;20183;-88
2022/03/25 11:42:56;;;;;;;;;;;;;;;;;;6176482;23;19927;-88
2022/03/25 11:45:33;;;;;;;;;;;;;;;;;;6180999;23;20008;-89
2022/03/25 11:48:09;;;;;;;;;;;;;;;;;;6178616;23;19924;-89
2022/03/25 11:50:35;;;;;;;;;;;;;;;;;;6178488;23;19944;-89
2022/03/25 11:53:03;;;;;;;;;;;;;;;;;;6178233;23;19975;-89
2022/03/25 11:55:30;;;;;;;;;;;;;;;;;;6178724;23;20401;-89
2022/03/25 11:57:58;;;;;;;;;;;;;;;;;;6178456;23;19924;-88
2022/03/25 12:00:25;;;;;;;;;;;;;;;;;;6177609;23;19924;-89
2022/03/25 12:02:52;;;;;;;;;;;;;;;;;;6177384;23;19974;-89
2022/03/25 12:05:19;;;;;;;;;;;;;;;;;;6178709;23;19948;-89
2022/03/25 12:07:47;;;;;;;;;;;;;;;;;;6175523;23;19924;-88
2022/03/25 12:10:14;;;;;;;;;;;;;;;;;;6178029;23;19920;-88
2022/03/25 12:12:41;;;;;;;;;;;;;;;;;;6177177;23;20226;-88
2022/03/25 12:15:10;;;;;;;;;;;;;;;;;;6178129;23;19971;-88
2022/03/25 12:17:38;;;;;;;;;;;;;;;;;;6178379;23;19924;-88
2022/03/25 12:20:06;;;;;;;;;;;;;;;;;;6177627;23;19931;-88
2022/03/25 12:22:33;;;;;;;;;;;;;;;;;;6178789;23;19920;-89
2022/03/25 12:25:00;;;;;;;;;;;;;;;;;;6176874;23;19939;-88
2022/03/25 12:27:28;;;;;;;;;;;;;;;;;;6178599;23;19920;-88
2022/03/25 12:29:55;;;;;;;;;;;;;;;;;;6178329;23;20074;-88
2022/03/25 12:32:22;;;;;;;;;;;;;;;;;;6178606;23;19924;-88
2022/03/25 12:34:49;;;;;;;;;;;;;;;;;;6177393;23;19928;-89
2022/03/25 12:37:30;;;;;;;;;;;;;;;;;;6146140;23;19921;-89
2022/03/25 12:39:57;;;;;;;;;;;;;;;;;;6096632;23;20496;-89
2022/03/25 12:42:24;;;;;;;;;;;;;;;;;;6097148;23;19992;-88
2022/03/25 12:44:52;;;;;;;;;;;;;;;;;;6095350;23;20341;-88
2022/03/25 12:47:19;;;;;;;;;;;;;;;;;;6115842;23;19921;-89
2022/03/25 12:49:47;;;;;;;;;;;;;;;;;;6124842;23;19960;-89
2022/03/25 12:52:14;;;;;;;;;;;;;;;;;;6121365;23;20421;-89
2022/03/25 12:54:41;;;;;;;;;;;;;;;;;;6120187;23;20506;-89
2022/03/25 12:57:10;;;;;;;;;;;;;;;;;;6121869;23;19917;-89
2022/03/25 12:59:37;;;;;;;;;;;;;;;;;;6097146;23;20337;-89
2022/03/25 13:02:04;;;;;;;;;;;;;;;;;;6119609;23;20298;-88
2022/03/25 13:04:31;;;;;;;;;;;;;;;;;;6121485;23;19921;-88
2022/03/25 13:06:58;;;;;;;;;;;;;;;;;;6121204;23;19959;-89
2022/03/25 13:09:24;;;;;;;;;;;;;;;;;;6147264;23;19978;-88
2022/03/25 13:11:52;;;;;;;;;;;;;;;;;;6149615;23;19920;-89
2022/03/25 13:14:19;;;;;;;;;;;;;;;;;;6152002;23;19920;-88
2022/03/25 13:16:47;;;;;;;;;;;;;;;;;;6152481;23;19916;-88
2022/03/25 13:19:14;;;;;;;;;;;;;;;;;;6152029;23;20021;-89
2022/03/25 13:22:00;;;;;;;;;;;;;;;;;;6177101;23;19918;-88
2022/03/25 13:24:41;;;;;;;;;;;;;;;;;;6109318;23;20000;-89
2022/03/25 13:27:08;;;;;;;;;;;;;;;;;;6086160;23;19949;-88
2022/03/25 13:29:35;;;;;;;;;;;;;;;;;;6110289;23;19929;-88
2022/03/25 13:32:05;;;;;;;;;;;;;;;;;;6111822;23;20354;-88
2022/03/25 13:34:33;;;;;;;;;;;;;;;;;;6084028;23;19988;-88
2022/03/25 13:37:01;;;;;;;;;;;;;;;;;;6088282;23;19917;-87
2022/03/25 13:39:28;;;;;;;;;;;;;;;;;;6086716;23;19949;-89
2022/03/25 13:42:00;;;;;;;;;;;;;;;;;;6085980;23;20000;-89
2022/03/25 13:44:26;;;;;;;;;;;;;;;;;;6111022;23;19917;-89
2022/03/25 13:46:53;;;;;;;;;;;;;;;;;;6111171;23;19923;-88
2022/03/25 13:49:21;;;;;;;;;;;;;;;;;;6108994;23;19925;-89
2022/03/25 13:51:55;;;;;;;;;;;;;;;;;;6083887;23;19927;-88
2022/03/25 13:54:23;;;;;;;;;;;;;;;;;;6109545;23;20335;-88
2022/03/25 13:56:50;;;;;;;;;;;;;;;;;;6142517;23;19927;-89
2022/03/25 13:59:16;;;;;;;;;;;;;;;;;;6143727;23;19984;-88
2022/03/25 14:01:44;;;;;;;;;;;;;;;;;;6121148;23;20035;-89
2022/03/25 14:04:11;;;;;;;;;;;;;;;;;;6120729;23;19925;-89
2022/03/25 14:06:39;;;;;;;;;;;;;;;;;;6120345;23;20257;-88
2022/03/25 14:09:07;;;;;;;;;;;;;;;;;;6122090;23;19976;-88
2022/03/25 14:11:34;;;;;;;;;;;;;;;;;;6121834;23;19947;-88
2022/03/25 14:14:02;;;;;;;;;;;;;;;;;;6147211;23;19917;-88
2022/03/25 14:16:30;;;;;;;;;;;;;;;;;;6145658;23;19944;-86
2022/03/25 14:19:16;;;;;;;;;;;;;;;;;;6118230;23;19921;-86
2022/03/25 14:21:43;;;;;;;;;;;;;;;;;;6094372;23;19931;-85
2022/03/25 14:26:57;;;;;;;;;;;;;;;;;;6121260;23;19967;-85
2022/03/25 14:29:25;;;;;;;;;;;;;;;;;;6095287;23;19925;-88
2022/03/25 14:31:52;;;;;;;;;;;;;;;;;;6119623;23;19944;-88
2022/03/25 14:34:21;;;;;;;;;;;;;;;;;;6097562;23;19916;-87
2022/03/25 14:36:47;;;;;;;;;;;;;;;;;;6120950;23;19924;-87
2022/03/25 14:39:14;;;;;;;;;;;;;;;;;;6146447;23;19931;-87
2022/03/25 14:41:40;;;;;;;;;;;;;;;;;;6120256;23;19920;-87
2022/03/25 14:44:10;;;;;;;;;;;;;;;;;;6144228;23;19920;-87
2022/03/25 14:46:37;;;;;;;;;;;;;;;;;;6120093;23;19944;-87
2022/03/25 14:49:04;;;;;;;;;;;;;;;;;;6120941;23;20346;-86
2022/03/25 14:51:32;;;;;;;;;;;;;;;;;;6098500;23;19932;-87
2022/03/25 14:53:59;;;;;;;;;;;;;;;;;;6145505;23;19921;-89
2022/03/25 14:56:26;;;;;;;;;;;;;;;;;;6120662;23;19948;-89
2022/03/25 14:58:54;;;;;;;;;;;;;;;;;;6121574;23;19917;-87
2022/03/25 15:01:21;;;;;;;;;;;;;;;;;;6144243;23;19921;-86
2022/03/25 15:03:47;;;;;;;;;;;;;;;;;;6126941;23;19974;-85
2022/03/25 15:06:13;;;;;;;;;;;;;;;;;;6182896;23;19924;-85
2022/03/25 15:08:41;;;;;;;;;;;;;;;;;;6181246;23;19920;-85
2022/03/25 15:11:22;;;;;;;;;;;;;;;;;;6205755;23;19927;-85
2022/03/25 15:13:51;;;;;;;;;;;;;;;;;;6181066;23;20322;-87
2022/03/25 15:16:40;;;;;;;;;;;;;;;;;;6205930;23;19949;-87
2022/03/25 15:19:07;;;;;;;;;;;;;;;;;;6181822;23;19991;-86
2022/03/25 15:21:34;;;;;;;;;;;;;;;;;;6183186;23;19955;-84
2022/03/25 15:24:02;;;;;;;;;;;;;;;;;;6180739;23;19916;-86
2022/03/25 15:26:30;;;;;;;;;;;;;;;;;;6181220;23;19920;-86
2022/03/25 15:28:57;;;;;;;;;;;;;;;;;;6179176;23;19978;-87
2022/03/25 15:37:06;;;;;;;;;;;;;;;;;;6180147;23;19919;-87
2022/03/25 15:42:20;;;;;;;;;;;;;;;;;;6205106;23;19923;-86
2022/03/25 15:44:47;;;;;;;;;;;;;;;;;;6181683;23;20000;-86
2022/03/25 15:47:14;;;;;;;;;;;;;;;;;;6179924;23;19924;-86
2022/03/25 15:49:42;;;;;;;;;;;;;;;;;;6180152;23;19924;-86
2022/03/25 15:52:09;;;;;;;;;;;;;;;;;;6178725;23;19966;-86
2022/03/25 15:54:37;;;;;;;;;;;;;;;;;;6181392;23;19920;-86
2022/03/25 15:57:04;;;;;;;;;;;;;;;;;;6180001;23;20681;-87
2022/03/25 15:59:31;;;;;;;;;;;;;;;;;;6207587;23;19920;-85
2022/03/25 16:01:59;;;;;;;;;;;;;;;;;;6207383;23;19927;-86
2022/03/25 16:04:26;;;;;;;;;;;;;;;;;;6180680;23;19920;-86
2022/03/25 16:06:53;;;;;;;;;;;;;;;;;;6179729;23;19969;-86
2022/03/25 16:09:21;;;;;;;;;;;;;;;;;;6178295;23;19931;-86
2022/03/25 16:11:51;;;;;;;;;;;;;;;;;;6205491;23;19947;-86
2022/03/25 16:14:20;;;;;;;;;;;;;;;;;;6204128;23;19926;-86
2022/03/25 16:16:50;;;;;;;;;;;;;;;;;;6179534;23;19922;-86
2022/03/25 16:19:26;;;;;;;;;;;;;;;;;;6205060;23;19982;-86
2022/03/25 16:21:52;;;;;;;;;;;;;;;;;;6180040;23;19920;-85
2022/03/25 16:24:19;;;;;;;;;;;;;;;;;;6180005;23;19927;-85
2022/03/25 16:26:47;;;;;;;;;;;;;;;;;;6180510;23;19927;-86
2022/03/25 16:29:14;;;;;;;;;;;;;;;;;;6180783;23;20002;-86
2022/03/25 16:32:01;;;;;;;;;;;;;;;;;;6150608;23;19920;-86
2022/03/25 16:34:28;;;;;;;;;;;;;;;;;;6148694;23;19920;-86
2022/03/25 16:36:56;;;;;;;;;;;;;;;;;;6149082;23;20747;-86
2022/03/25 16:39:23;;;;;;;;;;;;;;;;;;6124691;23;20000;-87
2022/03/25 16:41:52;;;;;;;;;;;;;;;;;;6149969;23;20305;-86
2022/03/25 16:44:29;;;;;;;;;;;;;;;;;;6152799;23;19987;-86
2022/03/25 16:46:59;;;;;;;;;;;;;;;;;;6128702;23;19930;-86
2022/03/25 16:49:27;;;;;;;;;;;;;;;;;;6153375;23;20008;-86
2022/03/25 16:51:54;;;;;;;;;;;;;;;;;;6152025;23;19923;-87
2022/03/25 16:54:35;;;;;;;;;;;;;;;;;;6117538;23;19963;-86
2022/03/25 16:57:03;;;;;;;;;;;;;;;;;;6090535;23;19921;-86
2022/03/25 16:59:29;;;;;;;;;;;;;;;;;;6116739;23;19917;-86
2022/03/25 17:01:56;;;;;;;;;;;;;;;;;;6115240;23;20073;-86
2022/03/25 17:04:23;;;;;;;;;;;;;;;;;;6093634;23;19920;-86
2022/03/25 17:06:58;;;;;;;;;;;;;;;;;;6119323;23;19949;-86
2022/03/25 17:09:25;;;;;;;;;;;;;;;;;;6093984;23;19933;-86
2022/03/25 17:11:53;;;;;;;;;;;;;;;;;;6098996;23;20365;-86
2022/03/25 17:14:20;;;;;;;;;;;;;;;;;;6094213;23;19917;-86
2022/03/25 17:16:50;;;;;;;;;;;;;;;;;;6093474;23;19996;-86